<?xml version="1.0" encoding="UTF-8" standalone="no" ?>
<gpx xmlns="http://www.topografix.com/GPX/1/1" xmlns:xsi="http://www.w3.org/2001/XMLSchema-instance" xsi:schemaLocation="http://www.topografix.com/GPX/1/1 http://www.topografix.com/GPX/1/1/gpx.xsd" version="1.1" creator="VisuGPX - https://www.visugpx.com">
  <metadata>
    <name>Mazaugues - Gorges du Caramy - Saut du Cabri</name>
    <desc><![CDATA[[b][url]http://art.photographies.free.fr[/url][/b]]]></desc>
  </metadata>
  <trk>
    <name><![CDATA[31 mai 2013 11:50:05]]></name>
    <cmt><![CDATA[31 mai 2013 11:50:05]]></cmt>
    <trkseg>
      <trkpt lat="43.3648" lon="5.91354">
        <ele>362</ele>
        <time>2013-05-31T09:50:06Z</time>
      </trkpt>
      <trkpt lat="43.3648" lon="5.91361">
        <ele>362</ele>
        <time>2013-05-31T09:54:57Z</time>
      </trkpt>
      <trkpt lat="43.36476" lon="5.91356">
        <ele>362</ele>
        <time>2013-05-31T09:55:34Z</time>
      </trkpt>
      <trkpt lat="43.36479" lon="5.91356">
        <ele>361</ele>
        <time>2013-05-31T09:56:48Z</time>
      </trkpt>
      <trkpt lat="43.3648" lon="5.91356">
        <ele>363</ele>
        <time>2013-05-31T10:07:08Z</time>
      </trkpt>
      <trkpt lat="43.36476" lon="5.91364">
        <ele>363</ele>
        <time>2013-05-31T10:07:32Z</time>
      </trkpt>
      <trkpt lat="43.36479" lon="5.91364">
        <ele>366</ele>
        <time>2013-05-31T10:08:37Z</time>
      </trkpt>
      <trkpt lat="43.3648" lon="5.91359">
        <ele>369</ele>
        <time>2013-05-31T10:13:56Z</time>
      </trkpt>
      <trkpt lat="43.36479" lon="5.91356">
        <ele>369</ele>
        <time>2013-05-31T10:17:27Z</time>
      </trkpt>
      <trkpt lat="43.36476" lon="5.91357">
        <ele>361</ele>
        <time>2013-05-31T10:23:30Z</time>
      </trkpt>
      <trkpt lat="43.36479" lon="5.91365">
        <ele>361</ele>
        <time>2013-05-31T10:23:42Z</time>
      </trkpt>
      <trkpt lat="43.36479" lon="5.91372">
        <ele>361</ele>
        <time>2013-05-31T10:23:46Z</time>
      </trkpt>
      <trkpt lat="43.36477" lon="5.91377">
        <ele>361</ele>
        <time>2013-05-31T10:23:50Z</time>
      </trkpt>
      <trkpt lat="43.36474" lon="5.91382">
        <ele>362</ele>
        <time>2013-05-31T10:23:54Z</time>
      </trkpt>
      <trkpt lat="43.36471" lon="5.91388">
        <ele>363</ele>
        <time>2013-05-31T10:23:59Z</time>
      </trkpt>
      <trkpt lat="43.36469" lon="5.91394">
        <ele>363</ele>
        <time>2013-05-31T10:24:07Z</time>
      </trkpt>
      <trkpt lat="43.36472" lon="5.91403">
        <ele>363</ele>
        <time>2013-05-31T10:24:23Z</time>
      </trkpt>
      <trkpt lat="43.36472" lon="5.9141">
        <ele>363</ele>
        <time>2013-05-31T10:24:28Z</time>
      </trkpt>
      <trkpt lat="43.3647" lon="5.91416">
        <ele>363</ele>
        <time>2013-05-31T10:24:34Z</time>
      </trkpt>
      <trkpt lat="43.36471" lon="5.91423">
        <ele>363</ele>
        <time>2013-05-31T10:24:38Z</time>
      </trkpt>
      <trkpt lat="43.36472" lon="5.9143">
        <ele>363</ele>
        <time>2013-05-31T10:24:44Z</time>
      </trkpt>
      <trkpt lat="43.36471" lon="5.91436">
        <ele>362</ele>
        <time>2013-05-31T10:24:48Z</time>
      </trkpt>
      <trkpt lat="43.36472" lon="5.91443">
        <ele>362</ele>
        <time>2013-05-31T10:24:53Z</time>
      </trkpt>
      <trkpt lat="43.36474" lon="5.91445">
        <ele>361</ele>
        <time>2013-05-31T10:25:11Z</time>
      </trkpt>
      <trkpt lat="43.36472" lon="5.91451">
        <ele>363</ele>
        <time>2013-05-31T10:25:22Z</time>
      </trkpt>
      <trkpt lat="43.36471" lon="5.91458">
        <ele>363</ele>
        <time>2013-05-31T10:25:26Z</time>
      </trkpt>
      <trkpt lat="43.36472" lon="5.91465">
        <ele>363</ele>
        <time>2013-05-31T10:25:31Z</time>
      </trkpt>
      <trkpt lat="43.36473" lon="5.91473">
        <ele>364</ele>
        <time>2013-05-31T10:25:42Z</time>
      </trkpt>
      <trkpt lat="43.36474" lon="5.91479">
        <ele>364</ele>
        <time>2013-05-31T10:25:46Z</time>
      </trkpt>
      <trkpt lat="43.36474" lon="5.91487">
        <ele>364</ele>
        <time>2013-05-31T10:25:51Z</time>
      </trkpt>
      <trkpt lat="43.36473" lon="5.91493">
        <ele>365</ele>
        <time>2013-05-31T10:25:55Z</time>
      </trkpt>
      <trkpt lat="43.36471" lon="5.915">
        <ele>364</ele>
        <time>2013-05-31T10:26:01Z</time>
      </trkpt>
      <trkpt lat="43.36468" lon="5.91506">
        <ele>362</ele>
        <time>2013-05-31T10:26:06Z</time>
      </trkpt>
      <trkpt lat="43.36468" lon="5.91524">
        <ele>362</ele>
        <time>2013-05-31T10:26:19Z</time>
      </trkpt>
      <trkpt lat="43.36468" lon="5.91538">
        <ele>363</ele>
        <time>2013-05-31T10:26:28Z</time>
      </trkpt>
      <trkpt lat="43.36465" lon="5.91551">
        <ele>362</ele>
        <time>2013-05-31T10:26:35Z</time>
      </trkpt>
      <trkpt lat="43.36464" lon="5.91558">
        <ele>362</ele>
        <time>2013-05-31T10:26:39Z</time>
      </trkpt>
      <trkpt lat="43.36465" lon="5.91565">
        <ele>363</ele>
        <time>2013-05-31T10:26:43Z</time>
      </trkpt>
      <trkpt lat="43.36464" lon="5.91571">
        <ele>363</ele>
        <time>2013-05-31T10:26:47Z</time>
      </trkpt>
      <trkpt lat="43.36462" lon="5.9158">
        <ele>361</ele>
        <time>2013-05-31T10:26:52Z</time>
      </trkpt>
      <trkpt lat="43.36458" lon="5.91584">
        <ele>360</ele>
        <time>2013-05-31T10:26:59Z</time>
      </trkpt>
      <trkpt lat="43.36455" lon="5.91583">
        <ele>359</ele>
        <time>2013-05-31T10:27:06Z</time>
      </trkpt>
      <trkpt lat="43.36455" lon="5.91594">
        <ele>358</ele>
        <time>2013-05-31T10:29:16Z</time>
      </trkpt>
      <trkpt lat="43.36455" lon="5.91601">
        <ele>358</ele>
        <time>2013-05-31T10:29:20Z</time>
      </trkpt>
      <trkpt lat="43.36454" lon="5.91609">
        <ele>358</ele>
        <time>2013-05-31T10:29:24Z</time>
      </trkpt>
      <trkpt lat="43.36453" lon="5.91615">
        <ele>359</ele>
        <time>2013-05-31T10:29:28Z</time>
      </trkpt>
      <trkpt lat="43.36454" lon="5.91622">
        <ele>358</ele>
        <time>2013-05-31T10:29:32Z</time>
      </trkpt>
      <trkpt lat="43.36451" lon="5.91634">
        <ele>358</ele>
        <time>2013-05-31T10:29:39Z</time>
      </trkpt>
      <trkpt lat="43.36449" lon="5.91642">
        <ele>358</ele>
        <time>2013-05-31T10:29:42Z</time>
      </trkpt>
      <trkpt lat="43.36447" lon="5.91647">
        <ele>359</ele>
        <time>2013-05-31T10:29:46Z</time>
      </trkpt>
      <trkpt lat="43.36446" lon="5.91655">
        <ele>360</ele>
        <time>2013-05-31T10:29:50Z</time>
      </trkpt>
      <trkpt lat="43.36445" lon="5.91661">
        <ele>359</ele>
        <time>2013-05-31T10:29:54Z</time>
      </trkpt>
      <trkpt lat="43.36443" lon="5.91667">
        <ele>360</ele>
        <time>2013-05-31T10:29:58Z</time>
      </trkpt>
      <trkpt lat="43.36442" lon="5.91674">
        <ele>360</ele>
        <time>2013-05-31T10:30:02Z</time>
      </trkpt>
      <trkpt lat="43.36442" lon="5.91681">
        <ele>360</ele>
        <time>2013-05-31T10:30:06Z</time>
      </trkpt>
      <trkpt lat="43.36441" lon="5.91688">
        <ele>359</ele>
        <time>2013-05-31T10:30:11Z</time>
      </trkpt>
      <trkpt lat="43.36438" lon="5.91695">
        <ele>359</ele>
        <time>2013-05-31T10:30:15Z</time>
      </trkpt>
      <trkpt lat="43.36437" lon="5.91701">
        <ele>359</ele>
        <time>2013-05-31T10:30:19Z</time>
      </trkpt>
      <trkpt lat="43.36436" lon="5.91708">
        <ele>359</ele>
        <time>2013-05-31T10:30:22Z</time>
      </trkpt>
      <trkpt lat="43.36434" lon="5.91714">
        <ele>360</ele>
        <time>2013-05-31T10:30:26Z</time>
      </trkpt>
      <trkpt lat="43.36432" lon="5.91721">
        <ele>360</ele>
        <time>2013-05-31T10:30:30Z</time>
      </trkpt>
      <trkpt lat="43.36431" lon="5.91728">
        <ele>361</ele>
        <time>2013-05-31T10:30:35Z</time>
      </trkpt>
      <trkpt lat="43.36429" lon="5.91737">
        <ele>361</ele>
        <time>2013-05-31T10:30:40Z</time>
      </trkpt>
      <trkpt lat="43.36429" lon="5.91748">
        <ele>361</ele>
        <time>2013-05-31T10:30:47Z</time>
      </trkpt>
      <trkpt lat="43.36428" lon="5.91755">
        <ele>361</ele>
        <time>2013-05-31T10:30:51Z</time>
      </trkpt>
      <trkpt lat="43.36428" lon="5.91761">
        <ele>362</ele>
        <time>2013-05-31T10:30:56Z</time>
      </trkpt>
      <trkpt lat="43.36425" lon="5.91775">
        <ele>361</ele>
        <time>2013-05-31T10:31:04Z</time>
      </trkpt>
      <trkpt lat="43.36423" lon="5.91781">
        <ele>361</ele>
        <time>2013-05-31T10:31:08Z</time>
      </trkpt>
      <trkpt lat="43.36419" lon="5.91785">
        <ele>361</ele>
        <time>2013-05-31T10:31:14Z</time>
      </trkpt>
      <trkpt lat="43.36418" lon="5.91792">
        <ele>361</ele>
        <time>2013-05-31T10:31:20Z</time>
      </trkpt>
      <trkpt lat="43.36418" lon="5.91799">
        <ele>361</ele>
        <time>2013-05-31T10:31:24Z</time>
      </trkpt>
      <trkpt lat="43.36418" lon="5.91807">
        <ele>360</ele>
        <time>2013-05-31T10:31:29Z</time>
      </trkpt>
      <trkpt lat="43.36418" lon="5.91813">
        <ele>359</ele>
        <time>2013-05-31T10:31:33Z</time>
      </trkpt>
      <trkpt lat="43.36418" lon="5.91819">
        <ele>358</ele>
        <time>2013-05-31T10:31:37Z</time>
      </trkpt>
      <trkpt lat="43.36416" lon="5.91825">
        <ele>358</ele>
        <time>2013-05-31T10:31:42Z</time>
      </trkpt>
      <trkpt lat="43.36414" lon="5.91832">
        <ele>357</ele>
        <time>2013-05-31T10:31:47Z</time>
      </trkpt>
      <trkpt lat="43.36413" lon="5.91838">
        <ele>358</ele>
        <time>2013-05-31T10:31:51Z</time>
      </trkpt>
      <trkpt lat="43.3641" lon="5.91847">
        <ele>359</ele>
        <time>2013-05-31T10:31:56Z</time>
      </trkpt>
      <trkpt lat="43.36409" lon="5.91856">
        <ele>359</ele>
        <time>2013-05-31T10:32:02Z</time>
      </trkpt>
      <trkpt lat="43.36407" lon="5.91867">
        <ele>360</ele>
        <time>2013-05-31T10:32:12Z</time>
      </trkpt>
      <trkpt lat="43.36405" lon="5.91876">
        <ele>361</ele>
        <time>2013-05-31T10:32:17Z</time>
      </trkpt>
      <trkpt lat="43.36406" lon="5.91883">
        <ele>360</ele>
        <time>2013-05-31T10:32:22Z</time>
      </trkpt>
      <trkpt lat="43.36405" lon="5.91894">
        <ele>360</ele>
        <time>2013-05-31T10:32:47Z</time>
      </trkpt>
      <trkpt lat="43.36404" lon="5.91901">
        <ele>359</ele>
        <time>2013-05-31T10:32:51Z</time>
      </trkpt>
      <trkpt lat="43.36403" lon="5.91909">
        <ele>359</ele>
        <time>2013-05-31T10:32:55Z</time>
      </trkpt>
      <trkpt lat="43.36402" lon="5.91915">
        <ele>359</ele>
        <time>2013-05-31T10:32:58Z</time>
      </trkpt>
      <trkpt lat="43.364" lon="5.91921">
        <ele>359</ele>
        <time>2013-05-31T10:33:02Z</time>
      </trkpt>
      <trkpt lat="43.36399" lon="5.9193">
        <ele>358</ele>
        <time>2013-05-31T10:33:07Z</time>
      </trkpt>
      <trkpt lat="43.36399" lon="5.91937">
        <ele>359</ele>
        <time>2013-05-31T10:33:11Z</time>
      </trkpt>
      <trkpt lat="43.36398" lon="5.91944">
        <ele>359</ele>
        <time>2013-05-31T10:33:15Z</time>
      </trkpt>
      <trkpt lat="43.36397" lon="5.91951">
        <ele>360</ele>
        <time>2013-05-31T10:33:19Z</time>
      </trkpt>
      <trkpt lat="43.36397" lon="5.91958">
        <ele>360</ele>
        <time>2013-05-31T10:33:23Z</time>
      </trkpt>
      <trkpt lat="43.36398" lon="5.91968">
        <ele>360</ele>
        <time>2013-05-31T10:33:30Z</time>
      </trkpt>
      <trkpt lat="43.36395" lon="5.91975">
        <ele>360</ele>
        <time>2013-05-31T10:34:10Z</time>
      </trkpt>
      <trkpt lat="43.36398" lon="5.91978">
        <ele>363</ele>
        <time>2013-05-31T10:35:17Z</time>
      </trkpt>
      <trkpt lat="43.364" lon="5.91982">
        <ele>361</ele>
        <time>2013-05-31T10:35:29Z</time>
      </trkpt>
      <trkpt lat="43.36395" lon="5.91994">
        <ele>358</ele>
        <time>2013-05-31T10:35:52Z</time>
      </trkpt>
      <trkpt lat="43.36393" lon="5.91995">
        <ele>357</ele>
        <time>2013-05-31T10:35:58Z</time>
      </trkpt>
      <trkpt lat="43.36392" lon="5.92004">
        <ele>354</ele>
        <time>2013-05-31T10:37:37Z</time>
      </trkpt>
      <trkpt lat="43.3639" lon="5.92016">
        <ele>354</ele>
        <time>2013-05-31T10:37:43Z</time>
      </trkpt>
      <trkpt lat="43.36388" lon="5.92026">
        <ele>354</ele>
        <time>2013-05-31T10:37:48Z</time>
      </trkpt>
      <trkpt lat="43.36386" lon="5.92033">
        <ele>355</ele>
        <time>2013-05-31T10:37:53Z</time>
      </trkpt>
      <trkpt lat="43.36384" lon="5.92043">
        <ele>356</ele>
        <time>2013-05-31T10:37:59Z</time>
      </trkpt>
      <trkpt lat="43.36383" lon="5.9205">
        <ele>355</ele>
        <time>2013-05-31T10:38:02Z</time>
      </trkpt>
      <trkpt lat="43.36382" lon="5.92057">
        <ele>355</ele>
        <time>2013-05-31T10:38:06Z</time>
      </trkpt>
      <trkpt lat="43.36381" lon="5.92063">
        <ele>357</ele>
        <time>2013-05-31T10:38:10Z</time>
      </trkpt>
      <trkpt lat="43.36379" lon="5.92068">
        <ele>358</ele>
        <time>2013-05-31T10:38:13Z</time>
      </trkpt>
      <trkpt lat="43.36376" lon="5.92076">
        <ele>359</ele>
        <time>2013-05-31T10:38:17Z</time>
      </trkpt>
      <trkpt lat="43.36375" lon="5.92082">
        <ele>359</ele>
        <time>2013-05-31T10:38:20Z</time>
      </trkpt>
      <trkpt lat="43.36373" lon="5.92089">
        <ele>360</ele>
        <time>2013-05-31T10:38:25Z</time>
      </trkpt>
      <trkpt lat="43.36372" lon="5.92096">
        <ele>360</ele>
        <time>2013-05-31T10:38:29Z</time>
      </trkpt>
      <trkpt lat="43.36373" lon="5.92102">
        <ele>359</ele>
        <time>2013-05-31T10:38:33Z</time>
      </trkpt>
      <trkpt lat="43.36374" lon="5.92109">
        <ele>360</ele>
        <time>2013-05-31T10:38:39Z</time>
      </trkpt>
      <trkpt lat="43.36376" lon="5.92108">
        <ele>362</ele>
        <time>2013-05-31T10:39:07Z</time>
      </trkpt>
      <trkpt lat="43.36378" lon="5.92099">
        <ele>362</ele>
        <time>2013-05-31T10:39:12Z</time>
      </trkpt>
      <trkpt lat="43.36378" lon="5.92093">
        <ele>362</ele>
        <time>2013-05-31T10:39:16Z</time>
      </trkpt>
      <trkpt lat="43.36377" lon="5.92086">
        <ele>361</ele>
        <time>2013-05-31T10:39:19Z</time>
      </trkpt>
      <trkpt lat="43.36377" lon="5.9208">
        <ele>362</ele>
        <time>2013-05-31T10:39:23Z</time>
      </trkpt>
      <trkpt lat="43.36378" lon="5.92072">
        <ele>362</ele>
        <time>2013-05-31T10:39:28Z</time>
      </trkpt>
      <trkpt lat="43.36378" lon="5.92064">
        <ele>362</ele>
        <time>2013-05-31T10:39:32Z</time>
      </trkpt>
      <trkpt lat="43.36379" lon="5.92058">
        <ele>362</ele>
        <time>2013-05-31T10:39:35Z</time>
      </trkpt>
      <trkpt lat="43.3638" lon="5.92051">
        <ele>362</ele>
        <time>2013-05-31T10:39:38Z</time>
      </trkpt>
      <trkpt lat="43.36382" lon="5.92045">
        <ele>363</ele>
        <time>2013-05-31T10:39:42Z</time>
      </trkpt>
      <trkpt lat="43.36383" lon="5.92038">
        <ele>362</ele>
        <time>2013-05-31T10:39:46Z</time>
      </trkpt>
      <trkpt lat="43.36384" lon="5.92032">
        <ele>362</ele>
        <time>2013-05-31T10:39:50Z</time>
      </trkpt>
      <trkpt lat="43.36387" lon="5.92027">
        <ele>362</ele>
        <time>2013-05-31T10:39:54Z</time>
      </trkpt>
      <trkpt lat="43.36388" lon="5.92019">
        <ele>363</ele>
        <time>2013-05-31T10:39:59Z</time>
      </trkpt>
      <trkpt lat="43.36389" lon="5.92014">
        <ele>362</ele>
        <time>2013-05-31T10:40:07Z</time>
      </trkpt>
      <trkpt lat="43.36392" lon="5.92009">
        <ele>361</ele>
        <time>2013-05-31T10:40:18Z</time>
      </trkpt>
      <trkpt lat="43.36392" lon="5.92">
        <ele>360</ele>
        <time>2013-05-31T10:40:21Z</time>
      </trkpt>
      <trkpt lat="43.36392" lon="5.91992">
        <ele>359</ele>
        <time>2013-05-31T10:40:25Z</time>
      </trkpt>
      <trkpt lat="43.36394" lon="5.91986">
        <ele>359</ele>
        <time>2013-05-31T10:40:29Z</time>
      </trkpt>
      <trkpt lat="43.36396" lon="5.91979">
        <ele>360</ele>
        <time>2013-05-31T10:40:33Z</time>
      </trkpt>
      <trkpt lat="43.36397" lon="5.91972">
        <ele>360</ele>
        <time>2013-05-31T10:40:37Z</time>
      </trkpt>
      <trkpt lat="43.36395" lon="5.91966">
        <ele>361</ele>
        <time>2013-05-31T10:40:41Z</time>
      </trkpt>
      <trkpt lat="43.36396" lon="5.91959">
        <ele>362</ele>
        <time>2013-05-31T10:40:48Z</time>
      </trkpt>
      <trkpt lat="43.36398" lon="5.91953">
        <ele>362</ele>
        <time>2013-05-31T10:40:52Z</time>
      </trkpt>
      <trkpt lat="43.36399" lon="5.91945">
        <ele>363</ele>
        <time>2013-05-31T10:40:57Z</time>
      </trkpt>
      <trkpt lat="43.36401" lon="5.91939">
        <ele>363</ele>
        <time>2013-05-31T10:41:01Z</time>
      </trkpt>
      <trkpt lat="43.36403" lon="5.91934">
        <ele>362</ele>
        <time>2013-05-31T10:41:05Z</time>
      </trkpt>
      <trkpt lat="43.36408" lon="5.9193">
        <ele>362</ele>
        <time>2013-05-31T10:41:14Z</time>
      </trkpt>
      <trkpt lat="43.3641" lon="5.91925">
        <ele>361</ele>
        <time>2013-05-31T10:41:20Z</time>
      </trkpt>
      <trkpt lat="43.36415" lon="5.91919">
        <ele>362</ele>
        <time>2013-05-31T10:41:25Z</time>
      </trkpt>
      <trkpt lat="43.36419" lon="5.91917">
        <ele>362</ele>
        <time>2013-05-31T10:41:29Z</time>
      </trkpt>
      <trkpt lat="43.36423" lon="5.91914">
        <ele>361</ele>
        <time>2013-05-31T10:41:33Z</time>
      </trkpt>
      <trkpt lat="43.36427" lon="5.91911">
        <ele>361</ele>
        <time>2013-05-31T10:41:37Z</time>
      </trkpt>
      <trkpt lat="43.36431" lon="5.91914">
        <ele>362</ele>
        <time>2013-05-31T10:41:42Z</time>
      </trkpt>
      <trkpt lat="43.36434" lon="5.91919">
        <ele>363</ele>
        <time>2013-05-31T10:41:48Z</time>
      </trkpt>
      <trkpt lat="43.36437" lon="5.91925">
        <ele>363</ele>
        <time>2013-05-31T10:41:54Z</time>
      </trkpt>
      <trkpt lat="43.36441" lon="5.91928">
        <ele>363</ele>
        <time>2013-05-31T10:41:57Z</time>
      </trkpt>
      <trkpt lat="43.36445" lon="5.91932">
        <ele>362</ele>
        <time>2013-05-31T10:42:01Z</time>
      </trkpt>
      <trkpt lat="43.36449" lon="5.91935">
        <ele>361</ele>
        <time>2013-05-31T10:42:05Z</time>
      </trkpt>
      <trkpt lat="43.36454" lon="5.91936">
        <ele>362</ele>
        <time>2013-05-31T10:42:10Z</time>
      </trkpt>
      <trkpt lat="43.3646" lon="5.91935">
        <ele>362</ele>
        <time>2013-05-31T10:42:16Z</time>
      </trkpt>
      <trkpt lat="43.36465" lon="5.91936">
        <ele>363</ele>
        <time>2013-05-31T10:42:21Z</time>
      </trkpt>
      <trkpt lat="43.3647" lon="5.91938">
        <ele>363</ele>
        <time>2013-05-31T10:42:26Z</time>
      </trkpt>
      <trkpt lat="43.36473" lon="5.91945">
        <ele>364</ele>
        <time>2013-05-31T10:42:31Z</time>
      </trkpt>
      <trkpt lat="43.36475" lon="5.91951">
        <ele>365</ele>
        <time>2013-05-31T10:42:36Z</time>
      </trkpt>
      <trkpt lat="43.36478" lon="5.91956">
        <ele>365</ele>
        <time>2013-05-31T10:42:43Z</time>
      </trkpt>
      <trkpt lat="43.36482" lon="5.91962">
        <ele>366</ele>
        <time>2013-05-31T10:42:47Z</time>
      </trkpt>
      <trkpt lat="43.36484" lon="5.91968">
        <ele>365</ele>
        <time>2013-05-31T10:42:52Z</time>
      </trkpt>
      <trkpt lat="43.36489" lon="5.9197">
        <ele>365</ele>
        <time>2013-05-31T10:44:46Z</time>
      </trkpt>
      <trkpt lat="43.36488" lon="5.91973">
        <ele>365</ele>
        <time>2013-05-31T10:45:50Z</time>
      </trkpt>
      <trkpt lat="43.36488" lon="5.91977">
        <ele>365</ele>
        <time>2013-05-31T10:45:56Z</time>
      </trkpt>
      <trkpt lat="43.36494" lon="5.91982">
        <ele>366</ele>
        <time>2013-05-31T10:46:11Z</time>
      </trkpt>
      <trkpt lat="43.36497" lon="5.91985">
        <ele>366</ele>
        <time>2013-05-31T10:46:20Z</time>
      </trkpt>
      <trkpt lat="43.36498" lon="5.91992">
        <ele>363</ele>
        <time>2013-05-31T10:46:45Z</time>
      </trkpt>
      <trkpt lat="43.36496" lon="5.91999">
        <ele>364</ele>
        <time>2013-05-31T10:46:50Z</time>
      </trkpt>
      <trkpt lat="43.36496" lon="5.91997">
        <ele>363</ele>
        <time>2013-05-31T10:47:09Z</time>
      </trkpt>
      <trkpt lat="43.36498" lon="5.9199">
        <ele>364</ele>
        <time>2013-05-31T10:47:19Z</time>
      </trkpt>
      <trkpt lat="43.36502" lon="5.91987">
        <ele>366</ele>
        <time>2013-05-31T10:47:25Z</time>
      </trkpt>
      <trkpt lat="43.36506" lon="5.9199">
        <ele>366</ele>
        <time>2013-05-31T10:47:31Z</time>
      </trkpt>
      <trkpt lat="43.36506" lon="5.91999">
        <ele>367</ele>
        <time>2013-05-31T10:48:25Z</time>
      </trkpt>
      <trkpt lat="43.36507" lon="5.92005">
        <ele>367</ele>
        <time>2013-05-31T10:48:33Z</time>
      </trkpt>
      <trkpt lat="43.36506" lon="5.92008">
        <ele>367</ele>
        <time>2013-05-31T10:48:39Z</time>
      </trkpt>
      <trkpt lat="43.36507" lon="5.92011">
        <ele>369</ele>
        <time>2013-05-31T10:49:07Z</time>
      </trkpt>
      <trkpt lat="43.36511" lon="5.92016">
        <ele>369</ele>
        <time>2013-05-31T10:49:13Z</time>
      </trkpt>
      <trkpt lat="43.36515" lon="5.9202">
        <ele>369</ele>
        <time>2013-05-31T10:49:16Z</time>
      </trkpt>
      <trkpt lat="43.36518" lon="5.92026">
        <ele>368</ele>
        <time>2013-05-31T10:49:20Z</time>
      </trkpt>
      <trkpt lat="43.36521" lon="5.92032">
        <ele>368</ele>
        <time>2013-05-31T10:49:25Z</time>
      </trkpt>
      <trkpt lat="43.36524" lon="5.92037">
        <ele>367</ele>
        <time>2013-05-31T10:49:30Z</time>
      </trkpt>
      <trkpt lat="43.36525" lon="5.92042">
        <ele>370</ele>
        <time>2013-05-31T10:49:45Z</time>
      </trkpt>
      <trkpt lat="43.36527" lon="5.92044">
        <ele>368</ele>
        <time>2013-05-31T10:50:08Z</time>
      </trkpt>
      <trkpt lat="43.36529" lon="5.9205">
        <ele>368</ele>
        <time>2013-05-31T10:50:15Z</time>
      </trkpt>
      <trkpt lat="43.36531" lon="5.92056">
        <ele>368</ele>
        <time>2013-05-31T10:50:19Z</time>
      </trkpt>
      <trkpt lat="43.36534" lon="5.9206">
        <ele>366</ele>
        <time>2013-05-31T10:50:25Z</time>
      </trkpt>
      <trkpt lat="43.36538" lon="5.92064">
        <ele>364</ele>
        <time>2013-05-31T10:50:31Z</time>
      </trkpt>
      <trkpt lat="43.36542" lon="5.92065">
        <ele>364</ele>
        <time>2013-05-31T10:50:40Z</time>
      </trkpt>
      <trkpt lat="43.36546" lon="5.9207">
        <ele>366</ele>
        <time>2013-05-31T10:50:53Z</time>
      </trkpt>
      <trkpt lat="43.36549" lon="5.92068">
        <ele>368</ele>
        <time>2013-05-31T10:51:02Z</time>
      </trkpt>
      <trkpt lat="43.36553" lon="5.92072">
        <ele>368</ele>
        <time>2013-05-31T10:51:07Z</time>
      </trkpt>
      <trkpt lat="43.36558" lon="5.92074">
        <ele>367</ele>
        <time>2013-05-31T10:51:13Z</time>
      </trkpt>
      <trkpt lat="43.36563" lon="5.92075">
        <ele>366</ele>
        <time>2013-05-31T10:51:18Z</time>
      </trkpt>
      <trkpt lat="43.36568" lon="5.92078">
        <ele>367</ele>
        <time>2013-05-31T10:51:23Z</time>
      </trkpt>
      <trkpt lat="43.36573" lon="5.9208">
        <ele>367</ele>
        <time>2013-05-31T10:51:28Z</time>
      </trkpt>
      <trkpt lat="43.36578" lon="5.92077">
        <ele>368</ele>
        <time>2013-05-31T10:51:34Z</time>
      </trkpt>
      <trkpt lat="43.36579" lon="5.92071">
        <ele>370</ele>
        <time>2013-05-31T10:51:38Z</time>
      </trkpt>
      <trkpt lat="43.36583" lon="5.92067">
        <ele>372</ele>
        <time>2013-05-31T10:51:46Z</time>
      </trkpt>
      <trkpt lat="43.36587" lon="5.9207">
        <ele>371</ele>
        <time>2013-05-31T10:51:51Z</time>
      </trkpt>
      <trkpt lat="43.36592" lon="5.92071">
        <ele>372</ele>
        <time>2013-05-31T10:51:55Z</time>
      </trkpt>
      <trkpt lat="43.36597" lon="5.92073">
        <ele>373</ele>
        <time>2013-05-31T10:52:00Z</time>
      </trkpt>
      <trkpt lat="43.36601" lon="5.92073">
        <ele>373</ele>
        <time>2013-05-31T10:52:09Z</time>
      </trkpt>
      <trkpt lat="43.36606" lon="5.92075">
        <ele>374</ele>
        <time>2013-05-31T10:52:20Z</time>
      </trkpt>
      <trkpt lat="43.3661" lon="5.92078">
        <ele>373</ele>
        <time>2013-05-31T10:52:28Z</time>
      </trkpt>
      <trkpt lat="43.36615" lon="5.92078">
        <ele>374</ele>
        <time>2013-05-31T10:52:35Z</time>
      </trkpt>
      <trkpt lat="43.3662" lon="5.92082">
        <ele>374</ele>
        <time>2013-05-31T10:52:39Z</time>
      </trkpt>
      <trkpt lat="43.36622" lon="5.92088">
        <ele>374</ele>
        <time>2013-05-31T10:52:45Z</time>
      </trkpt>
      <trkpt lat="43.36623" lon="5.92092">
        <ele>374</ele>
        <time>2013-05-31T10:52:57Z</time>
      </trkpt>
      <trkpt lat="43.36627" lon="5.92095">
        <ele>375</ele>
        <time>2013-05-31T10:53:02Z</time>
      </trkpt>
      <trkpt lat="43.36628" lon="5.92099">
        <ele>373</ele>
        <time>2013-05-31T10:53:16Z</time>
      </trkpt>
      <trkpt lat="43.36626" lon="5.92107">
        <ele>373</ele>
        <time>2013-05-31T10:53:29Z</time>
      </trkpt>
      <trkpt lat="43.36624" lon="5.92114">
        <ele>374</ele>
        <time>2013-05-31T10:53:34Z</time>
      </trkpt>
      <trkpt lat="43.36625" lon="5.92121">
        <ele>375</ele>
        <time>2013-05-31T10:53:38Z</time>
      </trkpt>
      <trkpt lat="43.36627" lon="5.92128">
        <ele>376</ele>
        <time>2013-05-31T10:53:43Z</time>
      </trkpt>
      <trkpt lat="43.36625" lon="5.92134">
        <ele>377</ele>
        <time>2013-05-31T10:53:53Z</time>
      </trkpt>
      <trkpt lat="43.36628" lon="5.92142">
        <ele>377</ele>
        <time>2013-05-31T10:54:21Z</time>
      </trkpt>
      <trkpt lat="43.36629" lon="5.92146">
        <ele>375</ele>
        <time>2013-05-31T10:54:28Z</time>
      </trkpt>
      <trkpt lat="43.36627" lon="5.92155">
        <ele>373</ele>
        <time>2013-05-31T10:55:05Z</time>
      </trkpt>
      <trkpt lat="43.3663" lon="5.92155">
        <ele>373</ele>
        <time>2013-05-31T10:57:52Z</time>
      </trkpt>
      <trkpt lat="43.36631" lon="5.92157">
        <ele>373</ele>
        <time>2013-05-31T10:58:53Z</time>
      </trkpt>
      <trkpt lat="43.36634" lon="5.92157">
        <ele>373</ele>
        <time>2013-05-31T10:59:05Z</time>
      </trkpt>
      <trkpt lat="43.36636" lon="5.92157">
        <ele>372</ele>
        <time>2013-05-31T10:59:22Z</time>
      </trkpt>
      <trkpt lat="43.36639" lon="5.92159">
        <ele>374</ele>
        <time>2013-05-31T11:00:17Z</time>
      </trkpt>
      <trkpt lat="43.36635" lon="5.92168">
        <ele>373</ele>
        <time>2013-05-31T11:00:36Z</time>
      </trkpt>
      <trkpt lat="43.36636" lon="5.92172">
        <ele>375</ele>
        <time>2013-05-31T11:01:51Z</time>
      </trkpt>
      <trkpt lat="43.3664" lon="5.9217">
        <ele>371</ele>
        <time>2013-05-31T11:02:29Z</time>
      </trkpt>
      <trkpt lat="43.36642" lon="5.92165">
        <ele>372</ele>
        <time>2013-05-31T11:02:52Z</time>
      </trkpt>
      <trkpt lat="43.36648" lon="5.92164">
        <ele>375</ele>
        <time>2013-05-31T11:03:25Z</time>
      </trkpt>
      <trkpt lat="43.3665" lon="5.92162">
        <ele>377</ele>
        <time>2013-05-31T11:04:04Z</time>
      </trkpt>
      <trkpt lat="43.36652" lon="5.92161">
        <ele>377</ele>
        <time>2013-05-31T11:04:21Z</time>
      </trkpt>
      <trkpt lat="43.36658" lon="5.9216">
        <ele>378</ele>
        <time>2013-05-31T11:04:36Z</time>
      </trkpt>
      <trkpt lat="43.3666" lon="5.92161">
        <ele>377</ele>
        <time>2013-05-31T11:04:59Z</time>
      </trkpt>
      <trkpt lat="43.3666" lon="5.92171">
        <ele>377</ele>
        <time>2013-05-31T11:05:18Z</time>
      </trkpt>
      <trkpt lat="43.36662" lon="5.92177">
        <ele>379</ele>
        <time>2013-05-31T11:05:25Z</time>
      </trkpt>
      <trkpt lat="43.36665" lon="5.9218">
        <ele>379</ele>
        <time>2013-05-31T11:05:38Z</time>
      </trkpt>
      <trkpt lat="43.36666" lon="5.92183">
        <ele>377</ele>
        <time>2013-05-31T11:06:13Z</time>
      </trkpt>
      <trkpt lat="43.36666" lon="5.92188">
        <ele>378</ele>
        <time>2013-05-31T11:06:41Z</time>
      </trkpt>
      <trkpt lat="43.36667" lon="5.92192">
        <ele>379</ele>
        <time>2013-05-31T11:07:09Z</time>
      </trkpt>
      <trkpt lat="43.36668" lon="5.92195">
        <ele>380</ele>
        <time>2013-05-31T11:07:15Z</time>
      </trkpt>
      <trkpt lat="43.3667" lon="5.92195">
        <ele>379</ele>
        <time>2013-05-31T11:07:27Z</time>
      </trkpt>
      <trkpt lat="43.36674" lon="5.9219">
        <ele>379</ele>
        <time>2013-05-31T11:07:33Z</time>
      </trkpt>
      <trkpt lat="43.36678" lon="5.92183">
        <ele>379</ele>
        <time>2013-05-31T11:08:02Z</time>
      </trkpt>
      <trkpt lat="43.36681" lon="5.92182">
        <ele>380</ele>
        <time>2013-05-31T11:08:13Z</time>
      </trkpt>
      <trkpt lat="43.36685" lon="5.92176">
        <ele>380</ele>
        <time>2013-05-31T11:08:26Z</time>
      </trkpt>
      <trkpt lat="43.36688" lon="5.92168">
        <ele>382</ele>
        <time>2013-05-31T11:08:45Z</time>
      </trkpt>
      <trkpt lat="43.36692" lon="5.92169">
        <ele>382</ele>
        <time>2013-05-31T11:08:58Z</time>
      </trkpt>
      <trkpt lat="43.36697" lon="5.92167">
        <ele>382</ele>
        <time>2013-05-31T11:09:04Z</time>
      </trkpt>
      <trkpt lat="43.36702" lon="5.92169">
        <ele>382</ele>
        <time>2013-05-31T11:09:12Z</time>
      </trkpt>
      <trkpt lat="43.36706" lon="5.9217">
        <ele>382</ele>
        <time>2013-05-31T11:09:22Z</time>
      </trkpt>
      <trkpt lat="43.36709" lon="5.92167">
        <ele>382</ele>
        <time>2013-05-31T11:09:47Z</time>
      </trkpt>
      <trkpt lat="43.36712" lon="5.9217">
        <ele>382</ele>
        <time>2013-05-31T11:09:56Z</time>
      </trkpt>
      <trkpt lat="43.36717" lon="5.92175">
        <ele>383</ele>
        <time>2013-05-31T11:10:10Z</time>
      </trkpt>
      <trkpt lat="43.36721" lon="5.92176">
        <ele>384</ele>
        <time>2013-05-31T11:10:16Z</time>
      </trkpt>
      <trkpt lat="43.36728" lon="5.92171">
        <ele>386</ele>
        <time>2013-05-31T11:11:56Z</time>
      </trkpt>
      <trkpt lat="43.36726" lon="5.92169">
        <ele>385</ele>
        <time>2013-05-31T11:12:28Z</time>
      </trkpt>
      <trkpt lat="43.36733" lon="5.92166">
        <ele>386</ele>
        <time>2013-05-31T11:12:45Z</time>
      </trkpt>
      <trkpt lat="43.36737" lon="5.92163">
        <ele>386</ele>
        <time>2013-05-31T11:12:52Z</time>
      </trkpt>
      <trkpt lat="43.36745" lon="5.92163">
        <ele>384</ele>
        <time>2013-05-31T11:13:17Z</time>
      </trkpt>
      <trkpt lat="43.3675" lon="5.92157">
        <ele>387</ele>
        <time>2013-05-31T11:13:32Z</time>
      </trkpt>
      <trkpt lat="43.36754" lon="5.92157">
        <ele>386</ele>
        <time>2013-05-31T11:13:37Z</time>
      </trkpt>
      <trkpt lat="43.36758" lon="5.92162">
        <ele>387</ele>
        <time>2013-05-31T11:13:41Z</time>
      </trkpt>
      <trkpt lat="43.3676" lon="5.92169">
        <ele>387</ele>
        <time>2013-05-31T11:13:49Z</time>
      </trkpt>
      <trkpt lat="43.36759" lon="5.92175">
        <ele>386</ele>
        <time>2013-05-31T11:13:52Z</time>
      </trkpt>
      <trkpt lat="43.36757" lon="5.92181">
        <ele>385</ele>
        <time>2013-05-31T11:13:55Z</time>
      </trkpt>
      <trkpt lat="43.36755" lon="5.92187">
        <ele>385</ele>
        <time>2013-05-31T11:13:58Z</time>
      </trkpt>
      <trkpt lat="43.36754" lon="5.92193">
        <ele>384</ele>
        <time>2013-05-31T11:14:02Z</time>
      </trkpt>
      <trkpt lat="43.36753" lon="5.922">
        <ele>384</ele>
        <time>2013-05-31T11:14:07Z</time>
      </trkpt>
      <trkpt lat="43.36751" lon="5.92203">
        <ele>385</ele>
        <time>2013-05-31T11:15:18Z</time>
      </trkpt>
      <trkpt lat="43.36753" lon="5.92191">
        <ele>383</ele>
        <time>2013-05-31T11:17:49Z</time>
      </trkpt>
      <trkpt lat="43.36749" lon="5.92188">
        <ele>383</ele>
        <time>2013-05-31T11:17:57Z</time>
      </trkpt>
      <trkpt lat="43.36745" lon="5.92188">
        <ele>383</ele>
        <time>2013-05-31T11:18:05Z</time>
      </trkpt>
      <trkpt lat="43.36738" lon="5.92186">
        <ele>386</ele>
        <time>2013-05-31T11:18:38Z</time>
      </trkpt>
      <trkpt lat="43.36733" lon="5.92193">
        <ele>385</ele>
        <time>2013-05-31T11:18:49Z</time>
      </trkpt>
      <trkpt lat="43.3673" lon="5.92197">
        <ele>384</ele>
        <time>2013-05-31T11:18:57Z</time>
      </trkpt>
      <trkpt lat="43.36723" lon="5.92201">
        <ele>385</ele>
        <time>2013-05-31T11:19:16Z</time>
      </trkpt>
      <trkpt lat="43.3672" lon="5.92201">
        <ele>383</ele>
        <time>2013-05-31T11:19:32Z</time>
      </trkpt>
      <trkpt lat="43.36716" lon="5.92205">
        <ele>384</ele>
        <time>2013-05-31T11:19:39Z</time>
      </trkpt>
      <trkpt lat="43.36715" lon="5.92207">
        <ele>383</ele>
        <time>2013-05-31T11:19:45Z</time>
      </trkpt>
      <trkpt lat="43.36713" lon="5.92215">
        <ele>382</ele>
        <time>2013-05-31T11:20:03Z</time>
      </trkpt>
      <trkpt lat="43.36713" lon="5.92219">
        <ele>382</ele>
        <time>2013-05-31T11:20:10Z</time>
      </trkpt>
      <trkpt lat="43.36713" lon="5.92228">
        <ele>382</ele>
        <time>2013-05-31T11:20:28Z</time>
      </trkpt>
      <trkpt lat="43.36711" lon="5.92233">
        <ele>381</ele>
        <time>2013-05-31T11:20:44Z</time>
      </trkpt>
      <trkpt lat="43.36709" lon="5.9224">
        <ele>381</ele>
        <time>2013-05-31T11:20:57Z</time>
      </trkpt>
      <trkpt lat="43.36711" lon="5.92247">
        <ele>381</ele>
        <time>2013-05-31T11:21:02Z</time>
      </trkpt>
      <trkpt lat="43.36704" lon="5.92249">
        <ele>382</ele>
        <time>2013-05-31T11:21:56Z</time>
      </trkpt>
      <trkpt lat="43.36698" lon="5.92247">
        <ele>381</ele>
        <time>2013-05-31T11:22:08Z</time>
      </trkpt>
      <trkpt lat="43.36689" lon="5.92251">
        <ele>379</ele>
        <time>2013-05-31T11:22:19Z</time>
      </trkpt>
      <trkpt lat="43.36687" lon="5.92253">
        <ele>375</ele>
        <time>2013-05-31T11:22:29Z</time>
      </trkpt>
      <trkpt lat="43.36683" lon="5.92253">
        <ele>373</ele>
        <time>2013-05-31T11:22:51Z</time>
      </trkpt>
      <trkpt lat="43.36682" lon="5.9225">
        <ele>382</ele>
        <time>2013-05-31T11:23:46Z</time>
      </trkpt>
      <trkpt lat="43.36677" lon="5.92249">
        <ele>379</ele>
        <time>2013-05-31T11:24:01Z</time>
      </trkpt>
      <trkpt lat="43.36674" lon="5.92254">
        <ele>378</ele>
        <time>2013-05-31T11:24:13Z</time>
      </trkpt>
      <trkpt lat="43.36669" lon="5.92254">
        <ele>377</ele>
        <time>2013-05-31T11:25:06Z</time>
      </trkpt>
      <trkpt lat="43.3667" lon="5.92247">
        <ele>377</ele>
        <time>2013-05-31T11:26:37Z</time>
      </trkpt>
      <trkpt lat="43.36671" lon="5.92241">
        <ele>377</ele>
        <time>2013-05-31T11:26:52Z</time>
      </trkpt>
      <trkpt lat="43.36672" lon="5.92233">
        <ele>376</ele>
        <time>2013-05-31T11:27:04Z</time>
      </trkpt>
      <trkpt lat="43.36671" lon="5.92226">
        <ele>376</ele>
        <time>2013-05-31T11:27:16Z</time>
      </trkpt>
      <trkpt lat="43.36675" lon="5.92223">
        <ele>375</ele>
        <time>2013-05-31T11:27:36Z</time>
      </trkpt>
      <trkpt lat="43.36676" lon="5.92218">
        <ele>376</ele>
        <time>2013-05-31T11:27:54Z</time>
      </trkpt>
      <trkpt lat="43.36674" lon="5.92214">
        <ele>375</ele>
        <time>2013-05-31T11:28:11Z</time>
      </trkpt>
      <trkpt lat="43.36671" lon="5.9221">
        <ele>377</ele>
        <time>2013-05-31T11:29:35Z</time>
      </trkpt>
      <trkpt lat="43.36668" lon="5.92207">
        <ele>377</ele>
        <time>2013-05-31T11:29:52Z</time>
      </trkpt>
      <trkpt lat="43.36666" lon="5.92205">
        <ele>376</ele>
        <time>2013-05-31T11:30:29Z</time>
      </trkpt>
      <trkpt lat="43.36663" lon="5.92206">
        <ele>375</ele>
        <time>2013-05-31T11:30:51Z</time>
      </trkpt>
      <trkpt lat="43.36665" lon="5.92198">
        <ele>375</ele>
        <time>2013-05-31T11:31:35Z</time>
      </trkpt>
      <trkpt lat="43.36665" lon="5.92195">
        <ele>377</ele>
        <time>2013-05-31T11:31:46Z</time>
      </trkpt>
      <trkpt lat="43.36662" lon="5.92191">
        <ele>379</ele>
        <time>2013-05-31T11:32:36Z</time>
      </trkpt>
      <trkpt lat="43.36658" lon="5.92193">
        <ele>378</ele>
        <time>2013-05-31T11:32:59Z</time>
      </trkpt>
      <trkpt lat="43.36658" lon="5.92196">
        <ele>374</ele>
        <time>2013-05-31T11:34:06Z</time>
      </trkpt>
      <trkpt lat="43.36651" lon="5.92201">
        <ele>375</ele>
        <time>2013-05-31T11:34:58Z</time>
      </trkpt>
      <trkpt lat="43.3665" lon="5.92205">
        <ele>375</ele>
        <time>2013-05-31T11:35:43Z</time>
      </trkpt>
      <trkpt lat="43.36651" lon="5.92201">
        <ele>376</ele>
        <time>2013-05-31T11:37:58Z</time>
      </trkpt>
      <trkpt lat="43.36653" lon="5.92198">
        <ele>377</ele>
        <time>2013-05-31T11:38:52Z</time>
      </trkpt>
      <trkpt lat="43.36658" lon="5.92194">
        <ele>377</ele>
        <time>2013-05-31T11:39:02Z</time>
      </trkpt>
      <trkpt lat="43.3666" lon="5.92191">
        <ele>377</ele>
        <time>2013-05-31T11:39:14Z</time>
      </trkpt>
      <trkpt lat="43.36662" lon="5.92188">
        <ele>377</ele>
        <time>2013-05-31T11:39:48Z</time>
      </trkpt>
      <trkpt lat="43.36663" lon="5.92181">
        <ele>378</ele>
        <time>2013-05-31T11:40:02Z</time>
      </trkpt>
      <trkpt lat="43.36662" lon="5.92178">
        <ele>378</ele>
        <time>2013-05-31T11:40:19Z</time>
      </trkpt>
      <trkpt lat="43.36659" lon="5.92171">
        <ele>376</ele>
        <time>2013-05-31T11:40:38Z</time>
      </trkpt>
      <trkpt lat="43.36656" lon="5.92172">
        <ele>373</ele>
        <time>2013-05-31T11:41:00Z</time>
      </trkpt>
      <trkpt lat="43.36654" lon="5.92176">
        <ele>374</ele>
        <time>2013-05-31T11:41:17Z</time>
      </trkpt>
      <trkpt lat="43.36652" lon="5.92178">
        <ele>375</ele>
        <time>2013-05-31T11:41:41Z</time>
      </trkpt>
      <trkpt lat="43.36649" lon="5.92175">
        <ele>377</ele>
        <time>2013-05-31T11:42:01Z</time>
      </trkpt>
      <trkpt lat="43.36648" lon="5.92171">
        <ele>376</ele>
        <time>2013-05-31T11:42:13Z</time>
      </trkpt>
      <trkpt lat="43.36645" lon="5.92169">
        <ele>377</ele>
        <time>2013-05-31T11:42:52Z</time>
      </trkpt>
      <trkpt lat="43.36642" lon="5.9217">
        <ele>374</ele>
        <time>2013-05-31T11:43:43Z</time>
      </trkpt>
      <trkpt lat="43.36638" lon="5.92169">
        <ele>371</ele>
        <time>2013-05-31T11:44:40Z</time>
      </trkpt>
      <trkpt lat="43.36634" lon="5.92167">
        <ele>372</ele>
        <time>2013-05-31T11:45:04Z</time>
      </trkpt>
      <trkpt lat="43.36634" lon="5.92163">
        <ele>372</ele>
        <time>2013-05-31T11:47:20Z</time>
      </trkpt>
      <trkpt lat="43.36633" lon="5.92158">
        <ele>372</ele>
        <time>2013-05-31T11:47:31Z</time>
      </trkpt>
      <trkpt lat="43.36631" lon="5.92153">
        <ele>371</ele>
        <time>2013-05-31T11:50:57Z</time>
      </trkpt>
      <trkpt lat="43.36628" lon="5.92152">
        <ele>371</ele>
        <time>2013-05-31T11:51:25Z</time>
      </trkpt>
      <trkpt lat="43.36628" lon="5.92151">
        <ele>371</ele>
        <time>2013-05-31T11:53:13Z</time>
      </trkpt>
      <trkpt lat="43.36629" lon="5.92143">
        <ele>372</ele>
        <time>2013-05-31T11:53:33Z</time>
      </trkpt>
      <trkpt lat="43.36626" lon="5.92137">
        <ele>372</ele>
        <time>2013-05-31T11:53:39Z</time>
      </trkpt>
      <trkpt lat="43.36625" lon="5.9213">
        <ele>373</ele>
        <time>2013-05-31T11:53:43Z</time>
      </trkpt>
      <trkpt lat="43.36626" lon="5.92123">
        <ele>373</ele>
        <time>2013-05-31T11:53:48Z</time>
      </trkpt>
      <trkpt lat="43.36623" lon="5.92118">
        <ele>373</ele>
        <time>2013-05-31T11:53:57Z</time>
      </trkpt>
      <trkpt lat="43.36619" lon="5.92114">
        <ele>375</ele>
        <time>2013-05-31T11:54:06Z</time>
      </trkpt>
      <trkpt lat="43.36618" lon="5.92112">
        <ele>376</ele>
        <time>2013-05-31T11:54:12Z</time>
      </trkpt>
      <trkpt lat="43.36616" lon="5.92109">
        <ele>376</ele>
        <time>2013-05-31T11:54:23Z</time>
      </trkpt>
      <trkpt lat="43.36614" lon="5.92101">
        <ele>377</ele>
        <time>2013-05-31T11:54:44Z</time>
      </trkpt>
      <trkpt lat="43.36617" lon="5.921">
        <ele>377</ele>
        <time>2013-05-31T11:55:06Z</time>
      </trkpt>
      <trkpt lat="43.36614" lon="5.92108">
        <ele>378</ele>
        <time>2013-05-31T11:55:31Z</time>
      </trkpt>
      <trkpt lat="43.36612" lon="5.92114">
        <ele>377</ele>
        <time>2013-05-31T11:55:39Z</time>
      </trkpt>
      <trkpt lat="43.36609" lon="5.92115">
        <ele>377</ele>
        <time>2013-05-31T11:55:50Z</time>
      </trkpt>
      <trkpt lat="43.36603" lon="5.92117">
        <ele>378</ele>
        <time>2013-05-31T11:56:06Z</time>
      </trkpt>
      <trkpt lat="43.36599" lon="5.92116">
        <ele>377</ele>
        <time>2013-05-31T11:56:23Z</time>
      </trkpt>
      <trkpt lat="43.36598" lon="5.9211">
        <ele>376</ele>
        <time>2013-05-31T11:56:31Z</time>
      </trkpt>
      <trkpt lat="43.36597" lon="5.92103">
        <ele>374</ele>
        <time>2013-05-31T11:56:38Z</time>
      </trkpt>
      <trkpt lat="43.36592" lon="5.92098">
        <ele>373</ele>
        <time>2013-05-31T11:56:49Z</time>
      </trkpt>
      <trkpt lat="43.36588" lon="5.92098">
        <ele>371</ele>
        <time>2013-05-31T11:56:58Z</time>
      </trkpt>
      <trkpt lat="43.36585" lon="5.92091">
        <ele>372</ele>
        <time>2013-05-31T11:57:24Z</time>
      </trkpt>
      <trkpt lat="43.36582" lon="5.92086">
        <ele>374</ele>
        <time>2013-05-31T11:57:59Z</time>
      </trkpt>
      <trkpt lat="43.36579" lon="5.92081">
        <ele>374</ele>
        <time>2013-05-31T11:58:05Z</time>
      </trkpt>
      <trkpt lat="43.36573" lon="5.92083">
        <ele>373</ele>
        <time>2013-05-31T11:58:16Z</time>
      </trkpt>
      <trkpt lat="43.36569" lon="5.92082">
        <ele>372</ele>
        <time>2013-05-31T11:58:27Z</time>
      </trkpt>
      <trkpt lat="43.36562" lon="5.92083">
        <ele>371</ele>
        <time>2013-05-31T11:58:38Z</time>
      </trkpt>
      <trkpt lat="43.36557" lon="5.92087">
        <ele>371</ele>
        <time>2013-05-31T11:58:43Z</time>
      </trkpt>
      <trkpt lat="43.36554" lon="5.92091">
        <ele>371</ele>
        <time>2013-05-31T11:58:47Z</time>
      </trkpt>
      <trkpt lat="43.36542" lon="5.92106">
        <ele>361</ele>
        <time>2013-05-31T11:59:18Z</time>
      </trkpt>
      <trkpt lat="43.36536" lon="5.92112">
        <ele>361</ele>
        <time>2013-05-31T11:59:40Z</time>
      </trkpt>
      <trkpt lat="43.3653" lon="5.92122">
        <ele>361</ele>
        <time>2013-05-31T11:59:49Z</time>
      </trkpt>
      <trkpt lat="43.36515" lon="5.92135">
        <ele>352</ele>
        <time>2013-05-31T12:00:11Z</time>
      </trkpt>
      <trkpt lat="43.36519" lon="5.92134">
        <ele>353</ele>
        <time>2013-05-31T12:02:35Z</time>
      </trkpt>
      <trkpt lat="43.36522" lon="5.92138">
        <ele>353</ele>
        <time>2013-05-31T12:03:53Z</time>
      </trkpt>
      <trkpt lat="43.36524" lon="5.92137">
        <ele>353</ele>
        <time>2013-05-31T12:04:11Z</time>
      </trkpt>
      <trkpt lat="43.36529" lon="5.92144">
        <ele>354</ele>
        <time>2013-05-31T12:04:38Z</time>
      </trkpt>
      <trkpt lat="43.36532" lon="5.92147">
        <ele>354</ele>
        <time>2013-05-31T12:04:50Z</time>
      </trkpt>
      <trkpt lat="43.36536" lon="5.92141">
        <ele>355</ele>
        <time>2013-05-31T12:05:09Z</time>
      </trkpt>
      <trkpt lat="43.36541" lon="5.92142">
        <ele>354</ele>
        <time>2013-05-31T12:05:20Z</time>
      </trkpt>
      <trkpt lat="43.36546" lon="5.92141">
        <ele>357</ele>
        <time>2013-05-31T12:05:32Z</time>
      </trkpt>
      <trkpt lat="43.36549" lon="5.92139">
        <ele>358</ele>
        <time>2013-05-31T12:05:54Z</time>
      </trkpt>
      <trkpt lat="43.36552" lon="5.92135">
        <ele>357</ele>
        <time>2013-05-31T12:06:06Z</time>
      </trkpt>
      <trkpt lat="43.36556" lon="5.92135">
        <ele>356</ele>
        <time>2013-05-31T12:06:18Z</time>
      </trkpt>
      <trkpt lat="43.36559" lon="5.92135">
        <ele>355</ele>
        <time>2013-05-31T12:06:30Z</time>
      </trkpt>
      <trkpt lat="43.36566" lon="5.92139">
        <ele>352</ele>
        <time>2013-05-31T12:07:10Z</time>
      </trkpt>
      <trkpt lat="43.36572" lon="5.92142">
        <ele>351</ele>
        <time>2013-05-31T12:07:22Z</time>
      </trkpt>
      <trkpt lat="43.36577" lon="5.92148">
        <ele>350</ele>
        <time>2013-05-31T12:08:05Z</time>
      </trkpt>
      <trkpt lat="43.36582" lon="5.92148">
        <ele>356</ele>
        <time>2013-05-31T12:08:43Z</time>
      </trkpt>
      <trkpt lat="43.36584" lon="5.92144">
        <ele>361</ele>
        <time>2013-05-31T12:08:57Z</time>
      </trkpt>
      <trkpt lat="43.36577" lon="5.92148">
        <ele>353</ele>
        <time>2013-05-31T12:10:11Z</time>
      </trkpt>
      <trkpt lat="43.36575" lon="5.9214">
        <ele>352</ele>
        <time>2013-05-31T12:10:39Z</time>
      </trkpt>
      <trkpt lat="43.36572" lon="5.92144">
        <ele>356</ele>
        <time>2013-05-31T12:13:25Z</time>
      </trkpt>
      <trkpt lat="43.36576" lon="5.92146">
        <ele>360</ele>
        <time>2013-05-31T12:15:37Z</time>
      </trkpt>
      <trkpt lat="43.36574" lon="5.92155">
        <ele>357</ele>
        <time>2013-05-31T12:40:56Z</time>
      </trkpt>
      <trkpt lat="43.36573" lon="5.92157">
        <ele>366</ele>
        <time>2013-05-31T12:41:13Z</time>
      </trkpt>
      <trkpt lat="43.36569" lon="5.92149">
        <ele>371</ele>
        <time>2013-05-31T12:43:29Z</time>
      </trkpt>
      <trkpt lat="43.36566" lon="5.92137">
        <ele>370</ele>
        <time>2013-05-31T12:43:49Z</time>
      </trkpt>
      <trkpt lat="43.36558" lon="5.92141">
        <ele>360</ele>
        <time>2013-05-31T12:44:55Z</time>
      </trkpt>
      <trkpt lat="43.36548" lon="5.92151">
        <ele>359</ele>
        <time>2013-05-31T12:45:30Z</time>
      </trkpt>
      <trkpt lat="43.36549" lon="5.92145">
        <ele>357</ele>
        <time>2013-05-31T12:45:40Z</time>
      </trkpt>
      <trkpt lat="43.36542" lon="5.92138">
        <ele>356</ele>
        <time>2013-05-31T12:45:55Z</time>
      </trkpt>
      <trkpt lat="43.36537" lon="5.92141">
        <ele>355</ele>
        <time>2013-05-31T12:46:10Z</time>
      </trkpt>
      <trkpt lat="43.36528" lon="5.92139">
        <ele>354</ele>
        <time>2013-05-31T12:46:28Z</time>
      </trkpt>
      <trkpt lat="43.36521" lon="5.92136">
        <ele>351</ele>
        <time>2013-05-31T12:46:43Z</time>
      </trkpt>
      <trkpt lat="43.36517" lon="5.92135">
        <ele>353</ele>
        <time>2013-05-31T12:46:56Z</time>
      </trkpt>
      <trkpt lat="43.36516" lon="5.92122">
        <ele>356</ele>
        <time>2013-05-31T12:47:54Z</time>
      </trkpt>
      <trkpt lat="43.36517" lon="5.92115">
        <ele>356</ele>
        <time>2013-05-31T12:48:00Z</time>
      </trkpt>
      <trkpt lat="43.36515" lon="5.92105">
        <ele>356</ele>
        <time>2013-05-31T12:48:08Z</time>
      </trkpt>
      <trkpt lat="43.36516" lon="5.92098">
        <ele>357</ele>
        <time>2013-05-31T12:48:13Z</time>
      </trkpt>
      <trkpt lat="43.36519" lon="5.92095">
        <ele>360</ele>
        <time>2013-05-31T12:48:59Z</time>
      </trkpt>
      <trkpt lat="43.36521" lon="5.92093">
        <ele>360</ele>
        <time>2013-05-31T12:49:23Z</time>
      </trkpt>
      <trkpt lat="43.36525" lon="5.92087">
        <ele>358</ele>
        <time>2013-05-31T12:49:35Z</time>
      </trkpt>
      <trkpt lat="43.36527" lon="5.92081">
        <ele>358</ele>
        <time>2013-05-31T12:49:40Z</time>
      </trkpt>
      <trkpt lat="43.36527" lon="5.92073">
        <ele>357</ele>
        <time>2013-05-31T12:49:49Z</time>
      </trkpt>
      <trkpt lat="43.36523" lon="5.9207">
        <ele>359</ele>
        <time>2013-05-31T12:49:56Z</time>
      </trkpt>
      <trkpt lat="43.36518" lon="5.92068">
        <ele>360</ele>
        <time>2013-05-31T12:50:03Z</time>
      </trkpt>
      <trkpt lat="43.36514" lon="5.92062">
        <ele>360</ele>
        <time>2013-05-31T12:50:12Z</time>
      </trkpt>
      <trkpt lat="43.36512" lon="5.9206">
        <ele>358</ele>
        <time>2013-05-31T12:50:23Z</time>
      </trkpt>
      <trkpt lat="43.3651" lon="5.92069">
        <ele>358</ele>
        <time>2013-05-31T12:50:32Z</time>
      </trkpt>
      <trkpt lat="43.36506" lon="5.92065">
        <ele>359</ele>
        <time>2013-05-31T12:51:05Z</time>
      </trkpt>
      <trkpt lat="43.36504" lon="5.92056">
        <ele>355</ele>
        <time>2013-05-31T12:52:07Z</time>
      </trkpt>
      <trkpt lat="43.365" lon="5.92051">
        <ele>354</ele>
        <time>2013-05-31T12:52:24Z</time>
      </trkpt>
      <trkpt lat="43.36494" lon="5.9206">
        <ele>354</ele>
        <time>2013-05-31T12:52:27Z</time>
      </trkpt>
      <trkpt lat="43.36485" lon="5.92061">
        <ele>354</ele>
        <time>2013-05-31T12:53:13Z</time>
      </trkpt>
      <trkpt lat="43.36483" lon="5.92057">
        <ele>355</ele>
        <time>2013-05-31T12:53:30Z</time>
      </trkpt>
      <trkpt lat="43.36484" lon="5.92054">
        <ele>355</ele>
        <time>2013-05-31T12:53:53Z</time>
      </trkpt>
      <trkpt lat="43.36488" lon="5.92042">
        <ele>355</ele>
        <time>2013-05-31T12:54:28Z</time>
      </trkpt>
      <trkpt lat="43.36495" lon="5.92047">
        <ele>354</ele>
        <time>2013-05-31T12:54:50Z</time>
      </trkpt>
      <trkpt lat="43.36501" lon="5.92057">
        <ele>353</ele>
        <time>2013-05-31T12:55:00Z</time>
      </trkpt>
      <trkpt lat="43.36509" lon="5.9206">
        <ele>357</ele>
        <time>2013-05-31T12:55:14Z</time>
      </trkpt>
      <trkpt lat="43.36514" lon="5.9205">
        <ele>360</ele>
        <time>2013-05-31T12:55:36Z</time>
      </trkpt>
      <trkpt lat="43.36517" lon="5.92045">
        <ele>361</ele>
        <time>2013-05-31T12:55:42Z</time>
      </trkpt>
      <trkpt lat="43.36519" lon="5.92044">
        <ele>363</ele>
        <time>2013-05-31T12:55:49Z</time>
      </trkpt>
      <trkpt lat="43.36523" lon="5.92048">
        <ele>363</ele>
        <time>2013-05-31T12:55:55Z</time>
      </trkpt>
      <trkpt lat="43.36525" lon="5.92045">
        <ele>366</ele>
        <time>2013-05-31T12:56:06Z</time>
      </trkpt>
      <trkpt lat="43.36526" lon="5.92042">
        <ele>367</ele>
        <time>2013-05-31T12:56:16Z</time>
      </trkpt>
      <trkpt lat="43.36526" lon="5.92039">
        <ele>369</ele>
        <time>2013-05-31T12:57:00Z</time>
      </trkpt>
      <trkpt lat="43.36524" lon="5.92034">
        <ele>369</ele>
        <time>2013-05-31T12:57:08Z</time>
      </trkpt>
      <trkpt lat="43.36521" lon="5.92029">
        <ele>369</ele>
        <time>2013-05-31T12:57:14Z</time>
      </trkpt>
      <trkpt lat="43.36518" lon="5.92023">
        <ele>370</ele>
        <time>2013-05-31T12:57:19Z</time>
      </trkpt>
      <trkpt lat="43.36517" lon="5.92017">
        <ele>369</ele>
        <time>2013-05-31T12:57:23Z</time>
      </trkpt>
      <trkpt lat="43.36512" lon="5.92014">
        <ele>369</ele>
        <time>2013-05-31T12:57:30Z</time>
      </trkpt>
      <trkpt lat="43.3651" lon="5.92008">
        <ele>370</ele>
        <time>2013-05-31T12:57:35Z</time>
      </trkpt>
      <trkpt lat="43.36508" lon="5.92002">
        <ele>371</ele>
        <time>2013-05-31T12:57:40Z</time>
      </trkpt>
      <trkpt lat="43.36507" lon="5.91996">
        <ele>370</ele>
        <time>2013-05-31T12:57:44Z</time>
      </trkpt>
      <trkpt lat="43.36506" lon="5.91989">
        <ele>371</ele>
        <time>2013-05-31T12:57:49Z</time>
      </trkpt>
      <trkpt lat="43.36502" lon="5.91986">
        <ele>371</ele>
        <time>2013-05-31T12:57:57Z</time>
      </trkpt>
      <trkpt lat="43.36497" lon="5.91984">
        <ele>372</ele>
        <time>2013-05-31T12:58:02Z</time>
      </trkpt>
      <trkpt lat="43.36493" lon="5.91979">
        <ele>371</ele>
        <time>2013-05-31T12:58:06Z</time>
      </trkpt>
      <trkpt lat="43.36489" lon="5.91974">
        <ele>371</ele>
        <time>2013-05-31T12:58:13Z</time>
      </trkpt>
      <trkpt lat="43.36486" lon="5.91969">
        <ele>370</ele>
        <time>2013-05-31T12:58:20Z</time>
      </trkpt>
      <trkpt lat="43.36483" lon="5.91963">
        <ele>371</ele>
        <time>2013-05-31T12:58:25Z</time>
      </trkpt>
      <trkpt lat="43.3648" lon="5.91957">
        <ele>371</ele>
        <time>2013-05-31T12:58:29Z</time>
      </trkpt>
      <trkpt lat="43.36476" lon="5.91953">
        <ele>373</ele>
        <time>2013-05-31T12:58:35Z</time>
      </trkpt>
      <trkpt lat="43.36472" lon="5.91945">
        <ele>371</ele>
        <time>2013-05-31T12:58:50Z</time>
      </trkpt>
      <trkpt lat="43.36471" lon="5.91939">
        <ele>370</ele>
        <time>2013-05-31T12:58:53Z</time>
      </trkpt>
      <trkpt lat="43.36466" lon="5.91936">
        <ele>370</ele>
        <time>2013-05-31T12:59:05Z</time>
      </trkpt>
      <trkpt lat="43.36462" lon="5.91935">
        <ele>372</ele>
        <time>2013-05-31T12:59:10Z</time>
      </trkpt>
      <trkpt lat="43.36457" lon="5.91936">
        <ele>372</ele>
        <time>2013-05-31T12:59:14Z</time>
      </trkpt>
      <trkpt lat="43.36452" lon="5.91936">
        <ele>372</ele>
        <time>2013-05-31T12:59:19Z</time>
      </trkpt>
      <trkpt lat="43.36445" lon="5.91936">
        <ele>372</ele>
        <time>2013-05-31T12:59:24Z</time>
      </trkpt>
      <trkpt lat="43.36436" lon="5.91931">
        <ele>369</ele>
        <time>2013-05-31T12:59:32Z</time>
      </trkpt>
      <trkpt lat="43.36435" lon="5.91924">
        <ele>369</ele>
        <time>2013-05-31T12:59:37Z</time>
      </trkpt>
      <trkpt lat="43.36433" lon="5.91918">
        <ele>368</ele>
        <time>2013-05-31T12:59:41Z</time>
      </trkpt>
      <trkpt lat="43.3643" lon="5.91911">
        <ele>367</ele>
        <time>2013-05-31T12:59:48Z</time>
      </trkpt>
      <trkpt lat="43.3643" lon="5.91904">
        <ele>367</ele>
        <time>2013-05-31T12:59:52Z</time>
      </trkpt>
      <trkpt lat="43.3643" lon="5.91896">
        <ele>368</ele>
        <time>2013-05-31T12:59:58Z</time>
      </trkpt>
      <trkpt lat="43.3643" lon="5.91889">
        <ele>369</ele>
        <time>2013-05-31T13:00:03Z</time>
      </trkpt>
      <trkpt lat="43.36429" lon="5.91881">
        <ele>368</ele>
        <time>2013-05-31T13:00:14Z</time>
      </trkpt>
      <trkpt lat="43.36429" lon="5.91874">
        <ele>367</ele>
        <time>2013-05-31T13:00:18Z</time>
      </trkpt>
      <trkpt lat="43.36429" lon="5.91867">
        <ele>367</ele>
        <time>2013-05-31T13:00:23Z</time>
      </trkpt>
      <trkpt lat="43.36429" lon="5.9186">
        <ele>367</ele>
        <time>2013-05-31T13:00:28Z</time>
      </trkpt>
      <trkpt lat="43.36429" lon="5.91853">
        <ele>367</ele>
        <time>2013-05-31T13:00:31Z</time>
      </trkpt>
      <trkpt lat="43.3643" lon="5.91846">
        <ele>366</ele>
        <time>2013-05-31T13:00:36Z</time>
      </trkpt>
      <trkpt lat="43.36433" lon="5.9184">
        <ele>365</ele>
        <time>2013-05-31T13:00:40Z</time>
      </trkpt>
      <trkpt lat="43.36434" lon="5.91837">
        <ele>365</ele>
        <time>2013-05-31T13:00:47Z</time>
      </trkpt>
      <trkpt lat="43.36433" lon="5.91832">
        <ele>366</ele>
        <time>2013-05-31T13:01:04Z</time>
      </trkpt>
      <trkpt lat="43.36435" lon="5.91828">
        <ele>366</ele>
        <time>2013-05-31T13:01:32Z</time>
      </trkpt>
      <trkpt lat="43.36437" lon="5.91818">
        <ele>368</ele>
        <time>2013-05-31T13:02:43Z</time>
      </trkpt>
      <trkpt lat="43.36437" lon="5.9181">
        <ele>368</ele>
        <time>2013-05-31T13:02:52Z</time>
      </trkpt>
      <trkpt lat="43.36438" lon="5.91804">
        <ele>368</ele>
        <time>2013-05-31T13:02:57Z</time>
      </trkpt>
      <trkpt lat="43.36438" lon="5.91796">
        <ele>369</ele>
        <time>2013-05-31T13:03:03Z</time>
      </trkpt>
      <trkpt lat="43.36438" lon="5.91787">
        <ele>368</ele>
        <time>2013-05-31T13:03:11Z</time>
      </trkpt>
      <trkpt lat="43.36438" lon="5.9178">
        <ele>368</ele>
        <time>2013-05-31T13:03:16Z</time>
      </trkpt>
      <trkpt lat="43.36439" lon="5.91773">
        <ele>368</ele>
        <time>2013-05-31T13:03:21Z</time>
      </trkpt>
      <trkpt lat="43.36436" lon="5.91765">
        <ele>368</ele>
        <time>2013-05-31T13:03:30Z</time>
      </trkpt>
      <trkpt lat="43.36432" lon="5.91762">
        <ele>369</ele>
        <time>2013-05-31T13:03:34Z</time>
      </trkpt>
      <trkpt lat="43.3643" lon="5.91754">
        <ele>369</ele>
        <time>2013-05-31T13:03:38Z</time>
      </trkpt>
      <trkpt lat="43.3643" lon="5.91748">
        <ele>368</ele>
        <time>2013-05-31T13:03:43Z</time>
      </trkpt>
      <trkpt lat="43.3643" lon="5.9174">
        <ele>368</ele>
        <time>2013-05-31T13:03:49Z</time>
      </trkpt>
      <trkpt lat="43.36432" lon="5.91733">
        <ele>367</ele>
        <time>2013-05-31T13:03:54Z</time>
      </trkpt>
      <trkpt lat="43.36432" lon="5.91727">
        <ele>367</ele>
        <time>2013-05-31T13:03:58Z</time>
      </trkpt>
      <trkpt lat="43.36433" lon="5.9172">
        <ele>367</ele>
        <time>2013-05-31T13:04:02Z</time>
      </trkpt>
      <trkpt lat="43.36433" lon="5.91713">
        <ele>367</ele>
        <time>2013-05-31T13:04:06Z</time>
      </trkpt>
      <trkpt lat="43.36433" lon="5.91706">
        <ele>366</ele>
        <time>2013-05-31T13:04:10Z</time>
      </trkpt>
      <trkpt lat="43.36435" lon="5.91698">
        <ele>366</ele>
        <time>2013-05-31T13:04:15Z</time>
      </trkpt>
      <trkpt lat="43.36436" lon="5.91692">
        <ele>365</ele>
        <time>2013-05-31T13:04:20Z</time>
      </trkpt>
      <trkpt lat="43.36436" lon="5.91686">
        <ele>365</ele>
        <time>2013-05-31T13:04:25Z</time>
      </trkpt>
      <trkpt lat="43.36438" lon="5.9168">
        <ele>365</ele>
        <time>2013-05-31T13:04:32Z</time>
      </trkpt>
      <trkpt lat="43.3644" lon="5.9167">
        <ele>364</ele>
        <time>2013-05-31T13:04:42Z</time>
      </trkpt>
      <trkpt lat="43.36442" lon="5.91664">
        <ele>364</ele>
        <time>2013-05-31T13:04:52Z</time>
      </trkpt>
      <trkpt lat="43.36443" lon="5.91661">
        <ele>364</ele>
        <time>2013-05-31T13:05:03Z</time>
      </trkpt>
      <trkpt lat="43.36444" lon="5.91655">
        <ele>363</ele>
        <time>2013-05-31T13:05:10Z</time>
      </trkpt>
      <trkpt lat="43.36445" lon="5.91648">
        <ele>364</ele>
        <time>2013-05-31T13:05:14Z</time>
      </trkpt>
      <trkpt lat="43.36446" lon="5.91641">
        <ele>364</ele>
        <time>2013-05-31T13:05:18Z</time>
      </trkpt>
      <trkpt lat="43.36445" lon="5.91634">
        <ele>365</ele>
        <time>2013-05-31T13:05:22Z</time>
      </trkpt>
      <trkpt lat="43.36446" lon="5.91629">
        <ele>365</ele>
        <time>2013-05-31T13:05:32Z</time>
      </trkpt>
      <trkpt lat="43.36449" lon="5.91619">
        <ele>364</ele>
        <time>2013-05-31T13:05:44Z</time>
      </trkpt>
      <trkpt lat="43.36451" lon="5.91612">
        <ele>364</ele>
        <time>2013-05-31T13:05:49Z</time>
      </trkpt>
      <trkpt lat="43.36453" lon="5.91606">
        <ele>364</ele>
        <time>2013-05-31T13:05:53Z</time>
      </trkpt>
      <trkpt lat="43.36454" lon="5.91599">
        <ele>363</ele>
        <time>2013-05-31T13:05:58Z</time>
      </trkpt>
      <trkpt lat="43.36455" lon="5.91591">
        <ele>365</ele>
        <time>2013-05-31T13:06:03Z</time>
      </trkpt>
      <trkpt lat="43.36457" lon="5.91585">
        <ele>365</ele>
        <time>2013-05-31T13:06:07Z</time>
      </trkpt>
      <trkpt lat="43.3646" lon="5.91578">
        <ele>364</ele>
        <time>2013-05-31T13:06:13Z</time>
      </trkpt>
      <trkpt lat="43.36461" lon="5.91572">
        <ele>364</ele>
        <time>2013-05-31T13:06:17Z</time>
      </trkpt>
      <trkpt lat="43.36463" lon="5.91566">
        <ele>363</ele>
        <time>2013-05-31T13:06:21Z</time>
      </trkpt>
      <trkpt lat="43.36465" lon="5.91559">
        <ele>361</ele>
        <time>2013-05-31T13:06:44Z</time>
      </trkpt>
      <trkpt lat="43.36468" lon="5.91553">
        <ele>360</ele>
        <time>2013-05-31T13:06:51Z</time>
      </trkpt>
      <trkpt lat="43.3647" lon="5.91546">
        <ele>361</ele>
        <time>2013-05-31T13:06:56Z</time>
      </trkpt>
      <trkpt lat="43.36471" lon="5.91539">
        <ele>361</ele>
        <time>2013-05-31T13:07:01Z</time>
      </trkpt>
      <trkpt lat="43.3647" lon="5.9153">
        <ele>361</ele>
        <time>2013-05-31T13:07:07Z</time>
      </trkpt>
      <trkpt lat="43.3647" lon="5.91523">
        <ele>363</ele>
        <time>2013-05-31T13:07:11Z</time>
      </trkpt>
      <trkpt lat="43.36469" lon="5.91517">
        <ele>364</ele>
        <time>2013-05-31T13:07:16Z</time>
      </trkpt>
      <trkpt lat="43.36469" lon="5.91509">
        <ele>365</ele>
        <time>2013-05-31T13:07:22Z</time>
      </trkpt>
      <trkpt lat="43.36471" lon="5.91502">
        <ele>364</ele>
        <time>2013-05-31T13:07:29Z</time>
      </trkpt>
      <trkpt lat="43.36475" lon="5.91496">
        <ele>363</ele>
        <time>2013-05-31T13:07:34Z</time>
      </trkpt>
      <trkpt lat="43.36476" lon="5.91489">
        <ele>363</ele>
        <time>2013-05-31T13:07:39Z</time>
      </trkpt>
      <trkpt lat="43.36474" lon="5.91482">
        <ele>363</ele>
        <time>2013-05-31T13:07:42Z</time>
      </trkpt>
      <trkpt lat="43.36472" lon="5.91475">
        <ele>363</ele>
        <time>2013-05-31T13:07:46Z</time>
      </trkpt>
      <trkpt lat="43.36471" lon="5.91468">
        <ele>362</ele>
        <time>2013-05-31T13:07:50Z</time>
      </trkpt>
      <trkpt lat="43.3647" lon="5.91461">
        <ele>363</ele>
        <time>2013-05-31T13:07:54Z</time>
      </trkpt>
      <trkpt lat="43.36469" lon="5.91455">
        <ele>363</ele>
        <time>2013-05-31T13:07:58Z</time>
      </trkpt>
      <trkpt lat="43.3647" lon="5.91449">
        <ele>364</ele>
        <time>2013-05-31T13:08:03Z</time>
      </trkpt>
      <trkpt lat="43.36471" lon="5.91442">
        <ele>363</ele>
        <time>2013-05-31T13:08:08Z</time>
      </trkpt>
      <trkpt lat="43.36471" lon="5.91435">
        <ele>363</ele>
        <time>2013-05-31T13:08:12Z</time>
      </trkpt>
      <trkpt lat="43.36469" lon="5.91428">
        <ele>363</ele>
        <time>2013-05-31T13:08:16Z</time>
      </trkpt>
      <trkpt lat="43.36468" lon="5.91421">
        <ele>362</ele>
        <time>2013-05-31T13:08:20Z</time>
      </trkpt>
      <trkpt lat="43.36469" lon="5.91414">
        <ele>363</ele>
        <time>2013-05-31T13:08:24Z</time>
      </trkpt>
      <trkpt lat="43.36471" lon="5.91407">
        <ele>364</ele>
        <time>2013-05-31T13:08:28Z</time>
      </trkpt>
      <trkpt lat="43.36472" lon="5.91401">
        <ele>365</ele>
        <time>2013-05-31T13:08:33Z</time>
      </trkpt>
      <trkpt lat="43.36471" lon="5.91392">
        <ele>365</ele>
        <time>2013-05-31T13:08:39Z</time>
      </trkpt>
      <trkpt lat="43.36471" lon="5.91385">
        <ele>365</ele>
        <time>2013-05-31T13:08:43Z</time>
      </trkpt>
      <trkpt lat="43.36469" lon="5.91378">
        <ele>365</ele>
        <time>2013-05-31T13:08:49Z</time>
      </trkpt>
      <trkpt lat="43.36469" lon="5.91375">
        <ele>364</ele>
        <time>2013-05-31T13:09:12Z</time>
      </trkpt>
      <trkpt lat="43.36471" lon="5.91369">
        <ele>365</ele>
        <time>2013-05-31T13:09:19Z</time>
      </trkpt>
      <trkpt lat="43.36476" lon="5.91364">
        <ele>365</ele>
        <time>2013-05-31T13:09:25Z</time>
      </trkpt>
      <trkpt lat="43.36478" lon="5.91359">
        <ele>365</ele>
        <time>2013-05-31T13:09:29Z</time>
      </trkpt>
      <trkpt lat="43.36479" lon="5.91354">
        <ele>364</ele>
        <time>2013-05-31T13:14:52Z</time>
      </trkpt>
    </trkseg>
  </trk>
</gpx>